createdAt,value
2018-01-14T00:02:04.825Z,7.10
2018-01-14T00:04:33.379Z,7.00
2018-01-14T00:07:02.561Z,7.00
2018-01-14T00:09:31.687Z,7.00
2018-01-14T00:12:00.609Z,7.10
2018-01-14T00:14:28.929Z,7.10
2018-01-14T00:16:57.216Z,7.10
2018-01-14T00:19:28.879Z,7.10
2018-01-14T00:21:57.962Z,7.10
2018-01-14T00:24:27.405Z,7.10
2018-01-14T00:26:56.557Z,7.10
2018-01-14T00:29:25.629Z,7.00
2018-01-14T00:31:54.316Z,6.90
2018-01-14T00:34:23.848Z,7.00
2018-01-14T00:36:52.619Z,6.90
2018-01-14T00:39:20.960Z,6.90
2018-01-14T00:41:49.361Z,6.90
2018-01-14T00:44:17.681Z,6.90
2018-01-14T00:46:45.990Z,6.90
2018-01-14T00:49:15.096Z,6.90
2018-01-14T00:51:44.996Z,6.90
2018-01-14T00:54:13.688Z,6.90
2018-01-14T00:56:42.455Z,6.90
2018-01-14T01:01:40.292Z,6.90
2018-01-14T01:04:08.628Z,7.00
2018-01-14T01:06:37.803Z,7.00
2018-01-14T01:09:06.160Z,7.00
2018-01-14T01:11:36.083Z,6.90
2018-01-14T01:14:05.633Z,6.90
2018-01-14T01:16:35.468Z,6.80
2018-01-14T01:19:04.270Z,6.80
2018-01-14T01:21:32.700Z,6.80
2018-01-14T01:24:01.153Z,6.80
2018-01-14T01:26:31.011Z,6.70
2018-01-14T01:28:59.264Z,6.70
2018-01-14T01:31:27.533Z,6.70
2018-01-14T01:33:57.350Z,6.70
2018-01-14T01:36:25.649Z,6.70
2018-01-14T01:38:53.916Z,6.70
2018-01-14T01:41:22.201Z,6.70
2018-01-14T01:43:50.477Z,6.70
2018-01-14T01:46:19.532Z,6.70
2018-01-14T01:48:47.825Z,6.70
2018-01-14T01:51:17.580Z,6.70
2018-01-14T01:53:45.821Z,6.70
2018-01-14T01:56:14.105Z,6.60
2018-01-14T01:58:42.348Z,6.60
2018-01-14T02:01:10.588Z,6.60
2018-01-14T02:03:39.410Z,6.60
2018-01-14T02:06:08.424Z,6.60
2018-01-14T02:08:37.432Z,6.60
2018-01-14T02:11:06.881Z,6.60
2018-01-14T02:13:35.918Z,6.60
2018-01-14T02:16:05.316Z,6.60
2018-01-14T02:18:33.629Z,6.60
2018-01-14T02:21:01.896Z,6.60
2018-01-14T02:23:30.137Z,6.60
2018-01-14T02:25:58.417Z,6.60
2018-01-14T02:28:27.428Z,6.60
2018-01-14T02:30:55.672Z,6.60
2018-01-14T02:33:23.947Z,6.60
2018-01-14T02:35:52.200Z,6.50
2018-01-14T02:38:22.053Z,6.50
2018-01-14T02:40:50.343Z,6.50
2018-01-14T02:43:18.588Z,6.50
2018-01-14T02:45:46.837Z,6.60
2018-01-14T02:48:16.256Z,6.50
2018-01-14T02:50:44.496Z,6.50
2018-01-14T02:53:13.513Z,6.50
2018-01-14T02:55:41.812Z,6.50
2018-01-14T03:00:46.405Z,6.50
2018-01-14T03:03:15.784Z,6.50
2018-01-14T03:05:44.028Z,6.50
2018-01-14T03:08:12.317Z,6.60
2018-01-14T03:10:41.324Z,6.60
2018-01-14T03:13:10.705Z,6.60
2018-01-14T03:15:39.493Z,6.60
2018-01-14T03:18:07.739Z,6.60
2018-01-14T03:20:36.000Z,6.60
2018-01-14T03:23:05.229Z,6.60
2018-01-14T03:25:34.627Z,6.60
2018-01-14T03:28:04.025Z,6.50
2018-01-14T03:33:02.234Z,6.50
2018-01-14T03:35:30.471Z,6.50
2018-01-14T03:37:58.760Z,6.50
2018-01-14T03:40:27.076Z,6.50
2018-01-14T03:42:55.328Z,6.50
2018-01-14T03:45:23.617Z,6.50
2018-01-14T03:47:51.872Z,6.40
2018-01-14T03:50:20.132Z,6.40
2018-01-14T03:52:48.404Z,6.40
2018-01-14T03:55:17.412Z,6.40
2018-01-14T03:57:46.796Z,6.40
2018-01-14T04:00:15.481Z,6.30
2018-01-14T04:02:43.724Z,6.30
2018-01-14T04:05:11.982Z,6.20
2018-01-14T04:07:41.759Z,6.30
2018-01-14T04:10:09.999Z,6.30
2018-01-14T04:12:39.013Z,6.30
2018-01-14T04:15:08.469Z,6.30
2018-01-14T04:17:36.724Z,6.30
2018-01-14T04:20:04.976Z,6.20
2018-01-14T04:22:34.483Z,6.20
2018-01-14T04:25:03.157Z,6.20
2018-01-14T04:27:31.425Z,6.20
2018-01-14T04:29:59.713Z,6.20
2018-01-14T04:32:27.959Z,6.20
2018-01-14T04:34:56.209Z,6.20
2018-01-14T04:37:25.268Z,6.30
2018-01-14T04:39:53.524Z,6.30
2018-01-14T04:42:21.868Z,6.30
2018-01-14T04:44:50.444Z,6.20
2018-01-14T04:47:19.527Z,6.20
2018-01-14T04:49:47.783Z,6.20
2018-01-14T04:52:16.061Z,6.10
2018-01-14T04:57:14.197Z,6.10
2018-01-14T04:59:43.257Z,6.10
2018-01-14T05:02:11.549Z,6.10
2018-01-14T05:04:39.840Z,6.00
2018-01-14T05:07:08.168Z,6.10
2018-01-14T05:09:39.043Z,6.10
2018-01-14T05:12:09.237Z,6.10
2018-01-14T05:14:39.070Z,6.10
2018-01-14T05:17:07.296Z,6.20
2018-01-14T05:22:05.087Z,6.20
2018-01-14T05:24:33.373Z,6.20
2018-01-14T05:27:01.669Z,6.30
2018-01-14T05:29:29.976Z,6.20
2018-01-14T05:31:58.234Z,6.20
2018-01-14T05:34:26.508Z,6.10
2018-01-14T05:36:54.756Z,6.00
2018-01-14T05:39:24.130Z,6.00
2018-01-14T05:41:52.424Z,6.00
2018-01-14T05:44:20.896Z,6.00
2018-01-14T05:46:49.929Z,5.90
2018-01-14T05:49:18.495Z,5.90
2018-01-14T05:51:47.493Z,5.90
2018-01-14T05:54:15.744Z,5.90
2018-01-14T05:59:14.289Z,6.00
2018-01-14T06:01:43.310Z,6.00
2018-01-14T06:04:12.348Z,6.00
2018-01-14T06:06:41.360Z,6.00
2018-01-14T06:09:09.608Z,5.90
2018-01-14T06:11:37.887Z,5.90
2018-01-14T06:14:06.153Z,5.90
2018-01-14T06:16:35.551Z,5.90
2018-01-14T06:19:04.037Z,5.90
2018-01-14T06:21:32.325Z,5.80
2018-01-14T06:24:00.582Z,5.80
2018-01-14T06:28:59.104Z,5.80
2018-01-14T06:31:27.361Z,5.90
2018-01-14T06:33:55.636Z,6.00
2018-01-14T06:36:24.652Z,5.90
2018-01-14T06:41:23.181Z,5.80
2018-01-14T06:46:20.961Z,5.70
2018-01-14T06:48:49.252Z,5.70
2018-01-14T06:51:17.485Z,5.70
2018-01-14T06:53:45.742Z,5.70
2018-01-14T06:56:15.533Z,5.60
2018-01-14T06:59:01.400Z,5.60
2018-01-14T07:01:30.701Z,5.70
2018-01-14T07:03:58.937Z,5.70
2018-01-14T07:06:28.320Z,5.70
2018-01-14T07:08:56.611Z,5.70
2018-01-14T07:11:24.854Z,5.70
2018-01-14T07:13:54.236Z,5.60
2018-01-14T07:16:23.288Z,5.60
2018-01-14T07:18:51.964Z,5.60
2018-01-14T07:21:20.254Z,5.60
2018-01-14T07:23:48.944Z,5.60
2018-01-14T07:26:17.189Z,5.70
2018-01-14T07:31:14.953Z,5.60
2018-01-14T07:33:43.194Z,5.60
2018-01-14T07:36:11.441Z,5.60
2018-01-14T07:38:39.725Z,5.60
2018-01-14T07:41:08.736Z,5.60
2018-01-14T07:43:37.749Z,5.60
2018-01-14T07:46:06.208Z,5.60
2018-01-14T07:51:06.505Z,5.60
2018-01-14T07:53:35.542Z,5.60
2018-01-14T07:56:04.935Z,5.60
2018-01-14T07:58:33.261Z,5.50
2018-01-14T08:01:01.537Z,5.50
2018-01-14T08:03:29.788Z,5.50
2018-01-14T08:08:28.689Z,5.60
2018-01-14T08:10:56.939Z,5.60
2018-01-14T08:13:25.216Z,5.60
2018-01-14T08:15:54.241Z,5.60
2018-01-14T08:20:52.389Z,5.60
2018-01-14T08:23:21.432Z,5.50
2018-01-14T08:25:49.698Z,5.50
2018-01-14T08:28:18.887Z,5.60
2018-01-14T08:30:48.277Z,5.60
2018-01-14T08:33:16.516Z,5.60
2018-01-14T08:35:44.793Z,5.60
2018-01-14T08:38:14.176Z,5.60
2018-01-14T08:40:43.193Z,5.70
2018-01-14T08:43:12.606Z,5.70
2018-01-14T08:45:42.364Z,5.60
2018-01-14T08:48:11.377Z,5.60
2018-01-14T08:50:40.424Z,5.60
2018-01-14T08:53:08.673Z,5.60
2018-01-14T08:55:36.925Z,5.60
2018-01-14T08:58:05.212Z,5.60
2018-01-14T09:00:34.251Z,5.60
2018-01-14T09:03:03.278Z,5.60
2018-01-14T09:10:31.714Z,5.60
2018-01-14T09:13:00.005Z,5.60
2018-01-14T09:15:28.244Z,5.70
2018-01-14T09:17:56.508Z,5.70
2018-01-14T09:20:24.784Z,5.70
2018-01-14T09:22:53.032Z,5.80
2018-01-14T09:25:21.282Z,5.80
2018-01-14T09:27:50.472Z,5.80
2018-01-14T09:30:32.023Z,5.80
2018-01-14T09:33:00.712Z,5.80
2018-01-14T09:35:28.953Z,5.80
2018-01-14T09:37:57.197Z,5.80
2018-01-14T09:40:26.997Z,5.90
2018-01-14T09:42:56.005Z,6.00
2018-01-14T09:45:25.017Z,6.00
2018-01-14T09:47:53.368Z,6.00
2018-01-14T09:50:21.613Z,6.10
2018-01-14T09:52:49.852Z,6.10
2018-01-14T09:55:18.161Z,6.20
2018-01-14T09:57:46.433Z,6.40
2018-01-14T10:00:14.709Z,6.40
2018-01-14T10:02:42.994Z,6.50
2018-01-14T10:05:12.784Z,6.60
2018-01-14T10:07:42.974Z,6.60
2018-01-14T10:10:12.008Z,6.70
2018-01-14T10:12:40.297Z,6.70
2018-01-14T10:15:08.617Z,6.90
2018-01-14T10:17:36.878Z,7.00
2018-01-14T10:20:05.144Z,7.10
2018-01-14T10:22:34.581Z,7.10
2018-01-14T10:25:03.267Z,7.00
2018-01-14T10:27:31.545Z,6.90
2018-01-14T10:29:59.853Z,6.80
2018-01-14T10:32:28.097Z,6.70
2018-01-14T10:34:56.331Z,6.60
2018-01-14T10:39:54.089Z,6.60
2018-01-14T10:42:22.369Z,6.50
2018-01-14T10:44:50.653Z,6.50
2018-01-14T10:47:18.897Z,6.50
2018-01-14T10:49:47.133Z,6.50
2018-01-14T10:52:16.385Z,6.70
2018-01-14T10:54:44.629Z,6.80
2018-01-14T10:57:12.877Z,6.90
2018-01-14T10:59:42.572Z,6.90
2018-01-14T11:02:10.817Z,7.00
2018-01-14T11:04:39.496Z,7.10
2018-01-14T11:07:07.819Z,7.10
2018-01-14T11:09:36.981Z,7.10
2018-01-14T11:12:05.997Z,7.20
2018-01-14T11:14:35.512Z,7.20
2018-01-14T11:17:03.822Z,7.10
2018-01-14T11:19:32.861Z,7.10
2018-01-14T11:24:31.291Z,7.10
2018-01-14T11:26:59.593Z,7.00
2018-01-14T11:32:28.533Z,7.00
2018-01-14T11:34:56.850Z,7.00
2018-01-14T11:37:25.085Z,7.10
2018-01-14T11:39:54.089Z,7.10
2018-01-14T11:44:52.228Z,7.20
2018-01-14T11:47:21.262Z,7.30
2018-01-14T11:52:19.045Z,7.30
2018-01-14T11:54:48.102Z,7.30
2018-01-14T11:59:45.908Z,7.40
2018-01-14T12:02:14.150Z,7.50
2018-01-14T12:04:42.449Z,7.50
2018-01-14T12:07:11.452Z,7.50
2018-01-14T12:09:39.732Z,7.50
2018-01-14T12:12:08.078Z,7.50
2018-01-14T12:14:37.846Z,7.50
2018-01-14T12:17:06.129Z,7.60
2018-01-14T12:19:35.174Z,7.60
2018-01-14T12:22:07.006Z,7.60
2018-01-14T12:24:35.299Z,7.60
2018-01-14T12:29:33.153Z,7.80
2018-01-14T12:35:08.340Z,8.10
2018-01-14T12:40:06.144Z,8.20
2018-01-14T12:45:05.117Z,8.00
2018-01-14T12:47:34.873Z,8.00
2018-01-14T12:50:03.180Z,8.00
2018-01-14T12:52:31.500Z,8.10
2018-01-14T12:55:00.881Z,8.30
2018-01-14T12:57:29.165Z,8.40
2018-01-14T12:59:57.993Z,8.40
2018-01-14T13:02:26.212Z,8.50
2018-01-14T13:04:54.537Z,8.60
2018-01-14T13:07:22.858Z,8.50
2018-01-14T13:09:52.283Z,8.30
2018-01-14T13:17:33.396Z,8.40
2018-01-14T13:32:51.615Z,8.20
2018-01-14T13:37:50.380Z,8.00
2018-01-14T13:42:48.452Z,7.80
2018-01-14T13:45:31.946Z,7.80
2018-01-14T13:55:58.456Z,7.90
2018-01-14T13:58:26.730Z,7.80
2018-01-14T14:03:30.554Z,7.40
2018-01-14T14:06:00.068Z,7.40
2018-01-14T14:11:03.898Z,7.60
2018-01-14T14:39:07.469Z,7.60
2018-01-14T14:46:59.637Z,7.60
2018-01-14T14:49:29.386Z,7.60
2018-01-14T14:57:02.571Z,7.50
2018-01-14T14:59:31.694Z,7.40
2018-01-14T15:12:03.868Z,7.00
2018-01-14T15:17:02.187Z,6.90
2018-01-14T15:19:30.531Z,6.90
2018-01-14T15:22:01.657Z,6.80
2018-01-14T16:09:20.960Z,5.90
2018-01-14T16:11:51.165Z,5.80
2018-01-14T16:14:19.531Z,5.80
2018-01-14T16:16:47.777Z,5.80
2018-01-14T16:21:45.605Z,5.70
2018-01-14T16:26:44.605Z,5.70
2018-01-14T16:31:43.409Z,5.60
2018-01-14T16:41:40.985Z,5.50
2018-01-14T16:46:38.791Z,5.60
2018-01-14T16:49:07.981Z,5.60
2018-01-14T17:09:05.135Z,5.40
2018-01-14T17:14:12.905Z,5.30
2018-01-14T17:19:11.560Z,5.30
2018-01-14T17:21:40.051Z,5.30
2018-01-14T17:24:08.353Z,5.30
2018-01-14T17:26:36.633Z,5.20
2018-01-14T17:29:06.087Z,5.20
2018-01-14T17:31:35.416Z,5.20
2018-01-14T17:36:33.668Z,5.20
2018-01-14T17:41:32.669Z,5.10
2018-01-14T17:44:00.930Z,5.10
2018-01-14T17:46:29.280Z,5.10
2018-01-14T17:49:00.594Z,5.10
2018-01-14T17:51:29.270Z,5.10
2018-01-14T17:53:57.605Z,5.10
2018-01-14T17:56:25.857Z,5.10
2018-01-14T17:58:55.637Z,5.00
2018-01-14T18:01:23.959Z,5.20
2018-01-14T18:03:53.394Z,5.20
2018-01-14T18:06:21.702Z,5.10
2018-01-14T18:08:50.384Z,5.20
2018-01-14T18:11:20.121Z,5.20
2018-01-14T18:13:48.853Z,5.30
2018-01-14T18:16:17.916Z,5.30
2018-01-14T18:18:46.197Z,5.40
2018-01-14T18:21:16.112Z,5.30
2018-01-14T18:23:44.513Z,5.30
2018-01-14T18:26:12.804Z,5.30
2018-01-14T18:28:41.102Z,5.30
2018-01-14T18:31:09.601Z,5.30
2018-01-14T18:33:38.879Z,5.20
2018-01-14T18:36:07.259Z,5.10
2018-01-14T18:38:35.542Z,5.10
2018-01-14T18:41:03.939Z,5.10
2018-01-14T18:43:33.599Z,5.00
2018-01-14T18:46:09.699Z,4.90
2018-01-14T18:48:38.052Z,4.90
2018-01-14T18:51:06.351Z,5.00
2018-01-14T18:53:34.735Z,5.00
2018-01-14T18:56:03.760Z,5.00
2018-01-14T18:58:32.792Z,5.10
2018-01-14T19:01:01.101Z,5.10
2018-01-14T19:03:30.687Z,5.10
2018-01-14T19:08:36.849Z,5.20
2018-01-14T19:13:36.113Z,5.20
2018-01-14T19:16:04.808Z,5.10
2018-01-14T19:18:33.127Z,5.10
2018-01-14T19:21:01.505Z,5.10
2018-01-14T19:23:31.055Z,5.10
2018-01-14T19:25:59.648Z,5.10
2018-01-14T19:28:28.635Z,5.10
2018-01-14T19:30:57.746Z,5.10
2018-01-14T19:33:26.026Z,5.10
2018-01-14T19:35:55.221Z,5.10
2018-01-14T19:40:53.079Z,5.00
2018-01-14T19:43:22.232Z,5.00
2018-01-14T19:45:51.316Z,5.00
2018-01-14T19:48:19.700Z,5.00
2018-01-14T19:53:28.429Z,5.00
2018-01-14T19:55:58.842Z,4.90
2018-01-14T20:04:43.378Z,4.80
2018-01-14T20:10:05.645Z,4.80
2018-01-14T20:12:39.236Z,4.90
2018-01-14T20:23:15.934Z,4.80
2018-01-14T20:25:46.096Z,4.80
2018-01-14T20:28:17.935Z,4.80
2018-01-14T20:31:07.045Z,4.90
2018-01-14T20:33:36.741Z,4.90
2018-01-14T20:36:08.504Z,4.90
2018-01-14T20:41:32.890Z,4.80
2018-01-14T20:44:22.830Z,4.80
2018-01-14T20:46:54.422Z,4.80
2018-01-14T20:54:24.514Z,4.70
2018-01-14T20:59:24.954Z,4.80
2018-01-14T21:04:31.409Z,4.70
2018-01-14T21:12:05.168Z,4.60
2018-01-14T21:14:33.690Z,4.70
2018-01-14T21:17:02.751Z,4.80
2018-01-14T21:19:31.086Z,4.80
2018-01-14T22:04:22.766Z,5.00
2018-01-14T22:09:22.886Z,5.00
2018-01-14T22:14:47.622Z,4.90
2018-01-14T22:17:16.242Z,4.90
2018-01-14T22:42:12.609Z,4.70
2018-01-14T22:47:11.247Z,4.70
2018-01-14T22:52:09.137Z,4.80
2018-01-14T23:04:37.403Z,4.80
2018-01-14T23:07:08.687Z,4.80
2018-01-14T23:12:08.650Z,4.80
2018-01-14T23:27:13.057Z,4.50
2018-01-14T23:32:11.456Z,4.40
2018-01-14T23:47:09.311Z,4.60
